Time;durP1;ratioP1;P1;durP2;ratioP2;P2;SDS_P1;SDS_P2;PMS_P1;PMS_P2;Temp;Humidity;BMP_temperature;BMP_pressure;BME280_temperature;BME280_humidity;BME280_pressure;Samples;Min_cycle;Max_cycle;Signal;HPM_P1;HPM_P2
2021/12/01 00:02:10;;;;;;;4.25;3.65;;;;;;;9.65;95.87;100147.13;5093287;28;20065;-64
2021/12/01 00:04:35;;;;;;;3.85;3.22;;;;;;;9.64;95.74;100130.41;5093057;28;20078;-64
2021/12/01 00:07:01;;;;;;;3.35;3.00;;;;;;;9.64;95.58;100127.78;5093247;28;20044;-64
2021/12/01 00:09:26;;;;;;;3.90;3.38;;;;;;;9.63;95.92;100126.00;5093383;28;20043;-64
2021/12/01 00:11:52;;;;;;;3.78;3.30;;;;;;;9.64;95.81;100105.78;5093156;28;20032;-65
2021/12/01 00:14:17;;;;;;;4.30;3.40;;;;;;;9.63;95.71;100102.25;5093110;28;20107;-64
2021/12/01 00:16:44;;;;;;;4.53;3.15;;;;;;;9.62;95.70;100095.22;5093123;28;20103;-64
2021/12/01 00:19:09;;;;;;;3.40;2.85;;;;;;;9.63;95.35;100070.59;5092678;28;20080;-66
2021/12/01 00:21:34;;;;;;;3.70;3.30;;;;;;;9.62;95.88;100076.75;5092782;28;20435;-65
2021/12/01 00:24:00;;;;;;;5.32;3.20;;;;;;;9.62;95.70;100063.56;5092830;28;20482;-64
2021/12/01 00:26:26;;;;;;;3.60;3.20;;;;;;;9.66;95.34;100062.69;5092643;28;20095;-64
2021/12/01 00:28:51;;;;;;;4.05;3.17;;;;;;;9.61;95.70;100040.72;5093051;28;20059;-63
2021/12/01 00:31:17;;;;;;;4.68;3.10;;;;;;;9.65;95.37;100036.31;5092977;28;20474;-64
2021/12/01 00:33:43;;;;;;;3.65;3.15;;;;;;;9.69;95.35;100025.78;5092805;28;20150;-64
2021/12/01 00:36:13;;;;;;;4.80;3.10;;;;;;;9.61;95.41;100021.38;5092789;28;20474;-64
2021/12/01 00:38:40;;;;;;;4.13;3.03;;;;;;;9.63;95.45;100011.69;5092691;28;20028;-64
2021/12/01 00:41:07;;;;;;;3.47;2.80;;;;;;;9.63;95.33;100011.69;5093049;28;20030;-64
2021/12/01 00:43:36;;;;;;;3.33;2.85;;;;;;;9.65;95.14;100023.13;5092852;28;20028;-64
2021/12/01 00:46:11;;;;;;;4.78;3.00;;;;;;;9.64;95.12;100006.44;5093018;28;20028;-64
2021/12/01 00:48:36;;;;;;;4.15;3.28;;;;;;;9.62;95.32;99997.63;5092723;28;20027;-65
2021/12/01 00:51:02;;;;;;;3.85;3.00;;;;;;;9.60;95.15;99990.59;5092880;28;20028;-64
2021/12/01 00:53:28;;;;;;;4.03;3.05;;;;;;;9.60;95.37;100001.16;5096606;28;20032;-64
2021/12/01 00:55:53;;;;;;;4.18;3.38;;;;;;;9.59;95.43;99994.09;5078431;28;20028;-65
2021/12/01 00:58:19;;;;;;;4.05;3.17;;;;;;;9.62;94.85;99986.19;5096487;28;20020;-64
2021/12/01 01:00:48;;;;;;;4.15;3.15;;;;;;;9.60;95.23;99980.06;5096641;28;20024;-64
2021/12/01 01:03:15;;;;;;;5.05;3.70;;;;;;;9.57;95.01;99980.03;5096445;28;20107;-64
2021/12/01 01:05:46;;;;;;;3.97;3.33;;;;;;;9.57;94.79;99978.28;5096334;28;20114;-65
2021/12/01 01:08:11;;;;;;;4.70;3.13;;;;;;;9.57;94.88;99965.09;5096342;28;20456;-64
2021/12/01 01:18:42;;;;;;;4.65;3.40;;;;;;;9.54;94.34;99944.88;5096071;28;20051;-63
2021/12/01 01:21:08;;;;;;;4.93;3.30;;;;;;;9.54;94.15;99946.63;5096051;28;20504;-64
2021/12/01 01:23:36;;;;;;;4.35;3.75;;;;;;;9.51;94.20;99938.75;5077909;28;20017;-64
2021/12/01 01:26:04;;;;;;;5.20;3.95;;;;;;;9.56;93.69;99928.19;5096187;28;20024;-64
2021/12/01 01:28:30;;;;;;;6.28;4.30;;;;;;;9.51;94.13;99933.47;5096042;28;20024;-65
2021/12/01 01:30:56;;;;;;;5.63;4.13;;;;;;;9.48;93.91;99921.13;5095903;28;20489;-64
2021/12/01 01:33:22;;;;;;;5.35;4.20;;;;;;;9.47;93.96;99913.25;5077892;28;20028;-64
2021/12/01 01:35:48;;;;;;;5.97;4.50;;;;;;;9.46;93.92;99911.47;5095908;28;20020;-64
2021/12/01 01:38:14;;;;;;;5.60;4.70;;;;;;;9.47;93.76;99907.97;5095536;28;20027;-64
2021/12/01 01:40:39;;;;;;;5.22;4.20;;;;;;;9.44;93.48;99903.56;5095619;28;20023;-63
2021/12/01 01:43:06;;;;;;;5.13;4.50;;;;;;;9.48;93.03;99907.09;5095199;28;20025;-63
2021/12/01 01:45:32;;;;;;;5.82;4.10;;;;;;;9.45;92.82;99920.25;5095635;28;20039;-64
2021/12/01 01:48:08;;;;;;;7.53;4.25;;;;;;;9.41;92.88;99911.47;5095613;28;20032;-64
2021/12/01 01:50:36;;;;;;;6.95;4.30;;;;;;;9.38;92.95;99895.66;5095562;28;20393;-64
2021/12/01 01:53:11;;;;;;;8.23;4.30;;;;;;;9.38;92.73;99892.13;5095451;28;20035;-63
2021/12/01 01:55:43;;;;;;;4.07;3.35;;;;;;;9.43;92.38;99893.03;5095558;28;20051;-64
2021/12/01 01:58:08;;;;;;;5.20;4.18;;;;;;;9.37;92.59;99891.25;5095621;28;20036;-64
2021/12/01 02:00:44;;;;;;;6.00;3.75;;;;;;;9.33;92.57;99894.75;5095524;28;20406;-64
2021/12/01 02:03:13;;;;;;;4.50;3.70;;;;;;;9.32;92.58;99869.28;5095343;28;20050;-63
2021/12/01 02:05:39;;;;;;;4.72;3.92;;;;;;;9.33;92.29;99854.34;5095387;28;20085;-64
2021/12/01 02:08:05;;;;;;;5.53;3.85;;;;;;;9.28;92.31;99867.53;5095210;28;20028;-63
2021/12/01 02:10:30;;;;;;;4.95;3.55;;;;;;;9.33;92.26;99851.69;5095167;28;20547;-63
2021/12/01 02:12:56;;;;;;;5.75;3.70;;;;;;;9.28;92.22;99841.16;5095073;28;20444;-63
2021/12/01 02:15:22;;;;;;;5.18;3.75;;;;;;;9.24;92.22;99845.53;5094860;28;20055;-64
2021/12/01 02:17:48;;;;;;;4.10;3.42;;;;;;;9.27;91.86;99835.00;5094984;28;20119;-64
2021/12/01 02:20:19;;;;;;;4.15;3.42;;;;;;;9.25;91.85;99828.00;5095032;28;20115;-63
2021/12/01 02:22:45;;;;;;;4.10;3.10;;;;;;;9.22;91.72;99820.97;5095309;28;20032;-64
2021/12/01 02:25:10;;;;;;;4.65;3.20;;;;;;;9.23;91.29;99814.81;5094823;28;20028;-64
2021/12/01 02:27:36;;;;;;;4.38;3.17;;;;;;;9.19;91.56;99804.25;5094651;28;20066;-65
2021/12/01 02:30:01;;;;;;;3.33;2.70;;;;;;;9.17;91.84;99803.41;5094523;28;20042;-64
2021/12/01 02:32:30;;;;;;;3.33;2.50;;;;;;;9.22;90.65;99810.41;5094846;28;20394;-64
2021/12/01 02:34:55;;;;;;;4.28;2.80;;;;;;;9.19;90.85;99791.09;5094819;28;20016;-64
2021/12/01 02:37:21;;;;;;;5.15;2.60;;;;;;;9.19;90.42;99786.69;5094599;28;20119;-63
2021/12/01 02:39:51;;;;;;;5.25;2.70;;;;;;;9.19;90.22;99775.28;5094597;28;20078;-65
2021/12/01 02:42:21;;;;;;;4.80;2.70;;;;;;;9.14;91.06;99753.31;5094624;28;20038;-64
2021/12/01 02:44:47;;;;;;;3.40;2.40;;;;;;;9.15;90.34;99750.66;5094885;28;20028;-64
2021/12/01 02:47:13;;;;;;;4.40;2.35;;;;;;;9.15;90.32;99752.44;5094738;28;20099;-64
2021/12/01 02:49:39;;;;;;;4.13;2.65;;;;;;;9.08;90.54;99743.66;5094554;28;20074;-63
2021/12/01 02:52:05;;;;;;;2.88;2.35;;;;;;;9.05;90.44;99737.53;5094316;28;20081;-64
2021/12/01 02:54:32;;;;;;;3.40;2.60;;;;;;;9.11;89.79;99734.88;5094384;28;20081;-63
2021/12/01 02:56:59;;;;;;;3.25;2.40;;;;;;;9.07;90.09;99722.56;5094337;28;20150;-64
2021/12/01 02:59:25;;;;;;;4.85;2.72;;;;;;;9.07;90.28;99730.47;5094465;28;20054;-64
2021/12/01 03:01:52;;;;;;;4.18;2.60;;;;;;;9.09;89.64;99707.66;5094205;28;20016;-64
2021/12/01 03:04:19;;;;;;;4.35;3.05;;;;;;;8.99;90.33;99707.66;5094258;28;20035;-64
2021/12/01 03:06:45;;;;;;;4.97;3.10;;;;;;;9.01;90.50;99705.03;5093996;28;20374;-64
2021/12/01 03:09:14;;;;;;;3.88;2.95;;;;;;;8.97;89.95;99706.78;5094073;28;20033;-63
2021/12/01 03:11:40;;;;;;;4.80;3.10;;;;;;;8.98;90.24;99708.53;5093930;28;20032;-64
2021/12/01 03:14:15;;;;;;;4.40;3.15;;;;;;;8.95;90.04;99700.66;5093641;28;20112;-64
2021/12/01 03:16:42;;;;;;;5.45;3.30;;;;;;;8.95;90.01;99705.91;5093946;28;20081;-64
2021/12/01 03:19:07;;;;;;;4.05;3.00;;;;;;;8.95;89.90;99699.75;5093655;28;20044;-64
2021/12/01 03:21:40;;;;;;;6.90;3.13;;;;;;;8.95;89.53;99705.00;5093717;28;20020;-64
2021/12/01 03:24:07;;;;;;;5.03;3.30;;;;;;;8.92;89.42;99681.31;5093679;28;20024;-64
2021/12/01 03:26:33;;;;;;;5.63;3.17;;;;;;;8.91;89.55;99671.69;5094042;28;20099;-63
2021/12/01 03:29:00;;;;;;;6.32;3.30;;;;;;;8.88;89.49;99650.59;5093953;28;20487;-64
2021/12/01 03:31:25;;;;;;;6.32;3.33;;;;;;;8.93;89.29;99672.53;5093879;28;20024;-64
2021/12/01 03:33:51;;;;;;;4.13;3.33;;;;;;;8.86;89.13;99658.47;5093752;28;20031;-64
2021/12/01 03:36:16;;;;;;;4.43;3.30;;;;;;;8.87;89.31;99654.13;5093599;28;20023;-64
2021/12/01 03:38:42;;;;;;;4.72;3.47;;;;;;;8.88;88.51;99634.78;5093514;28;20024;-64
2021/12/01 03:41:07;;;;;;;4.18;3.10;;;;;;;8.94;88.28;99640.91;5093490;28;20523;-64
2021/12/01 03:43:33;;;;;;;6.25;3.60;;;;;;;8.86;88.85;99637.41;5093508;28;20028;-64
2021/12/01 03:45:58;;;;;;;5.82;3.78;;;;;;;8.85;89.13;99629.53;5093597;28;20035;-64
2021/12/01 03:48:24;;;;;;;4.65;3.35;;;;;;;8.85;89.24;99598.78;5093343;28;20103;-65
2021/12/01 03:50:52;;;;;;;5.13;3.50;;;;;;;8.83;89.27;99621.63;5093534;28;20420;-64
2021/12/01 03:53:19;;;;;;;6.05;3.67;;;;;;;8.80;89.34;99604.94;5075475;28;20054;-64
2021/12/01 03:55:45;;;;;;;5.65;3.50;;;;;;;8.73;89.65;99598.81;5093253;28;20115;-63
2021/12/01 03:58:11;;;;;;;4.55;3.13;;;;;;;8.71;89.90;99584.78;5093553;28;20020;-64
2021/12/01 04:00:36;;;;;;;5.25;3.55;;;;;;;8.73;89.57;99580.38;5093234;28;20070;-64
2021/12/01 04:03:02;;;;;;;5.68;3.42;;;;;;;8.71;89.63;99567.22;5093544;28;20020;-64
2021/12/01 04:05:27;;;;;;;5.72;3.75;;;;;;;8.67;89.74;99565.47;5093360;28;20382;-64
2021/12/01 04:07:54;;;;;;;4.93;4.00;;;;;;;8.62;90.20;99534.78;5093111;28;20569;-63
2021/12/01 04:10:19;;;;;;;6.07;3.70;;;;;;;8.66;89.83;99542.66;5093082;28;20048;-64
2021/12/01 04:12:46;;;;;;;5.30;3.80;;;;;;;8.64;89.55;99552.31;5093126;28;20059;-64
2021/12/01 04:15:13;;;;;;;5.97;4.28;;;;;;;8.64;89.38;99539.13;5075043;28;20016;-63
2021/12/01 04:17:40;;;;;;;4.43;3.40;;;;;;;8.64;89.53;99535.63;5092849;28;20040;-64
2021/12/01 04:20:07;;;;;;;4.68;3.53;;;;;;;8.63;89.32;99528.63;5093013;28;20486;-64
2021/12/01 04:22:32;;;;;;;4.03;3.25;;;;;;;8.64;89.42;99519.84;5092875;28;20103;-64
2021/12/01 04:24:58;;;;;;;4.30;3.00;;;;;;;8.64;88.79;99525.09;5092991;28;20115;-64
2021/12/01 04:27:23;;;;;;;5.45;3.28;;;;;;;8.64;88.05;99514.56;5095582;28;20351;-64
2021/12/01 04:29:48;;;;;;;5.47;3.20;;;;;;;8.63;89.20;99513.69;5097158;28;20031;-63
2021/12/01 04:32:14;;;;;;;4.75;3.28;;;;;;;8.61;88.41;99494.41;5097219;28;20378;-64
2021/12/01 04:34:39;;;;;;;4.07;3.15;;;;;;;8.58;88.93;99496.16;5097069;28;20479;-63
2021/12/01 04:37:06;;;;;;;5.15;2.95;;;;;;;8.55;88.07;99480.38;5096996;28;20031;-63
2021/12/01 04:39:32;;;;;;;4.03;2.85;;;;;;;8.55;89.33;99472.47;5096972;28;20039;-63
2021/12/01 04:42:04;;;;;;;4.75;2.90;;;;;;;8.50;89.11;99464.59;5096987;28;20435;-64
2021/12/01 04:44:30;;;;;;;5.00;2.92;;;;;;;8.53;88.03;99469.84;5097035;28;20034;-64
2021/12/01 04:46:57;;;;;;;3.88;2.90;;;;;;;8.53;88.08;99444.41;5097105;28;20423;-63
2021/12/01 04:49:24;;;;;;;4.28;2.60;;;;;;;8.55;87.85;99438.25;5096638;28;20055;-64
2021/12/01 04:51:54;;;;;;;4.50;2.92;;;;;;;8.52;88.30;99424.22;5096642;28;20462;-63
2021/12/01 04:54:20;;;;;;;5.13;2.95;;;;;;;8.50;88.03;99430.38;5096704;28;20450;-63
2021/12/01 04:56:46;;;;;;;4.53;2.83;;;;;;;8.47;88.22;99431.25;5096928;28;20066;-64
2021/12/01 04:59:13;;;;;;;7.35;2.75;;;;;;;8.49;88.37;99423.34;5096494;28;20035;-64
2021/12/01 05:01:40;;;;;;;3.88;2.78;;;;;;;8.45;89.57;99414.59;5096691;28;20028;-63
2021/12/01 05:04:06;;;;;;;4.63;2.80;;;;;;;8.43;89.65;99407.56;5078283;28;20062;-63
2021/12/01 05:06:31;;;;;;;4.20;2.80;;;;;;;8.39;89.58;99411.97;5096662;28;20028;-63
2021/12/01 05:08:57;;;;;;;4.05;2.80;;;;;;;8.32;90.45;99418.13;5096281;28;20446;-64
2021/12/01 05:11:22;;;;;;;5.85;3.08;;;;;;;8.23;90.72;99391.84;5096649;28;20090;-64
2021/12/01 05:13:48;;;;;;;3.05;2.63;;;;;;;8.27;90.28;99407.59;5096361;28;20051;-63
2021/12/01 05:16:13;;;;;;;3.58;2.67;;;;;;;8.18;90.77;99405.00;5096366;28;20020;-64
2021/12/01 05:18:39;;;;;;;5.85;2.67;;;;;;;8.19;91.33;99398.00;5095936;28;20044;-63
2021/12/01 05:21:04;;;;;;;5.40;2.92;;;;;;;8.12;91.38;99398.88;5096232;28;20024;-64
2021/12/01 05:23:30;;;;;;;3.90;2.50;;;;;;;8.16;91.69;99384.81;5096176;28;20111;-63
2021/12/01 05:25:56;;;;;;;4.15;2.90;;;;;;;8.10;91.18;99383.09;5095968;28;20024;-64
2021/12/01 05:28:22;;;;;;;4.90;2.63;;;;;;;8.04;91.48;99373.44;5096069;28;20170;-64
2021/12/01 05:30:47;;;;;;;3.55;2.50;;;;;;;8.10;92.19;99388.38;5096032;28;20545;-64
2021/12/01 05:33:15;;;;;;;5.05;2.72;;;;;;;8.04;91.68;99372.56;5095908;28;20016;-64
2021/12/01 05:35:42;;;;;;;3.00;2.40;;;;;;;8.06;92.14;99401.53;5095991;28;20035;-64
2021/12/01 05:38:09;;;;;;;4.82;2.45;;;;;;;8.02;92.32;99375.22;5095107;28;20039;-63
2021/12/01 05:40:35;;;;;;;3.33;2.28;;;;;;;8.03;92.22;99350.66;5077588;28;20028;-64
2021/12/01 05:43:01;;;;;;;5.20;2.50;;;;;;;8.03;92.19;99362.94;5095780;28;20031;-64
2021/12/01 05:45:26;;;;;;;3.30;2.38;;;;;;;7.99;92.86;99351.56;5095833;28;20028;-64
2021/12/01 05:47:52;;;;;;;3.30;2.22;;;;;;;7.99;92.71;99338.41;5095646;28;20360;-64
2021/12/01 05:50:18;;;;;;;3.17;2.20;;;;;;;8.00;92.38;99339.28;5095860;28;20077;-64
2021/12/01 05:52:43;;;;;;;5.55;2.30;;;;;;;8.02;91.75;99325.25;5095484;28;20509;-64
2021/12/01 05:55:10;;;;;;;3.67;2.10;;;;;;;7.99;93.06;99327.88;5095611;28;20386;-64
2021/12/01 05:57:36;;;;;;;2.97;2.10;;;;;;;7.92;92.64;99318.28;5095338;28;20031;-64
2021/12/01 06:00:04;;;;;;;2.30;1.90;;;;;;;7.94;93.23;99334.03;5095552;28;20028;-64
2021/12/01 06:02:30;;;;;;;2.72;1.90;;;;;;;7.94;93.27;99313.00;5095570;28;20044;-64
2021/12/01 06:04:55;;;;;;;3.35;1.90;;;;;;;7.90;93.02;99304.25;5095309;28;20067;-64
2021/12/01 06:07:20;;;;;;;3.00;1.80;;;;;;;7.90;92.63;99290.22;5095197;28;20030;-64
2021/12/01 06:09:46;;;;;;;2.60;1.90;;;;;;;7.88;93.68;99305.09;5095388;28;20073;-64
2021/12/01 06:12:12;;;;;;;2.13;1.75;;;;;;;7.88;94.02;99297.22;5095464;28;20130;-64
2021/12/01 06:14:41;;;;;;;2.40;1.70;;;;;;;7.93;93.29;99274.44;5095478;28;20355;-63
2021/12/01 06:17:08;;;;;;;2.05;1.63;;;;;;;7.93;93.11;99288.47;5095307;28;20020;-64
2021/12/01 06:19:37;;;;;;;2.33;1.77;;;;;;;7.91;92.96;99269.16;5094605;28;20044;-64
2021/12/01 06:22:03;;;;;;;2.88;1.80;;;;;;;7.91;93.63;99292.84;5094692;28;20024;-64
2021/12/01 06:24:29;;;;;;;5.10;1.70;;;;;;;7.91;93.69;99263.03;5076458;28;20391;-64
2021/12/01 06:26:55;;;;;;;1.98;1.60;;;;;;;7.90;93.73;99245.50;5094696;28;20054;-64
2021/12/01 06:29:21;;;;;;;2.22;1.90;;;;;;;7.84;93.98;99246.41;5094752;28;20474;-64
2021/12/01 06:31:46;;;;;;;1.60;1.50;;;;;;;7.94;93.29;99249.88;5094869;28;20024;-64
2021/12/01 06:34:12;;;;;;;2.60;1.70;;;;;;;7.95;94.32;99301.59;5094784;28;20024;-64
2021/12/01 06:36:37;;;;;;;2.35;1.77;;;;;;;7.96;93.52;99250.72;5094708;28;20043;-64
2021/12/01 06:39:05;;;;;;;2.35;2.00;;;;;;;8.00;93.60;99223.53;5094710;28;20100;-63
2021/12/01 06:41:30;;;;;;;2.60;1.95;;;;;;;8.01;93.50;99248.97;5094551;28;20039;-63
2021/12/01 06:43:56;;;;;;;1.77;1.67;;;;;;;7.98;93.08;99215.66;5094576;28;20016;-64
2021/12/01 06:46:22;;;;;;;3.00;2.00;;;;;;;8.00;93.61;99227.03;5094596;28;20031;-63
2021/12/01 06:48:48;;;;;;;2.00;1.70;;;;;;;8.03;93.36;99220.91;5093844;28;20470;-64
2021/12/01 06:51:13;;;;;;;2.38;1.80;;;;;;;8.07;92.78;99198.09;5094555;28;20016;-64
2021/12/01 06:53:45;;;;;;;2.10;1.65;;;;;;;8.05;93.26;99203.38;5094475;28;20424;-64
2021/12/01 06:56:10;;;;;;;3.08;2.00;;;;;;;8.05;93.03;99216.53;5094363;28;20028;-63
2021/12/01 06:58:37;;;;;;;2.35;1.88;;;;;;;8.05;93.46;99203.38;5094299;28;20136;-63
2021/12/01 07:01:05;;;;;;;1.92;1.70;;;;;;;8.08;93.62;99212.97;5076139;28;20024;-63
2021/12/01 07:03:32;;;;;;;2.65;2.10;;;;;;;8.12;93.59;99209.44;5094243;28;20035;-64
2021/12/01 07:05:57;;;;;;;2.28;2.08;;;;;;;8.09;93.85;99186.66;5094187;28;20070;-63
2021/12/01 07:08:23;;;;;;;2.60;2.10;;;;;;;8.09;93.39;99194.53;5094059;28;20099;-63
2021/12/01 07:10:48;;;;;;;2.60;2.03;;;;;;;8.12;93.91;99185.78;5094225;28;20032;-64
2021/12/01 07:13:14;;;;;;;2.67;2.03;;;;;;;8.15;93.82;99198.91;5093960;28;20530;-62
2021/12/01 07:15:39;;;;;;;2.70;2.10;;;;;;;8.15;94.07;99191.03;5094294;28;20059;-64
2021/12/01 07:18:04;;;;;;;3.22;2.20;;;;;;;8.12;94.71;99184.00;5093866;28;20040;-63
2021/12/01 07:20:30;;;;;;;3.58;2.33;;;;;;;8.09;94.55;99188.41;5093852;28;20488;-63
2021/12/01 07:22:55;;;;;;;3.35;2.38;;;;;;;8.16;94.62;99184.88;5093764;28;20020;-64
2021/12/01 07:25:20;;;;;;;3.00;2.30;;;;;;;8.15;94.49;99184.00;5093935;28;20052;-64
2021/12/01 07:27:46;;;;;;;3.42;2.67;;;;;;;8.14;94.23;99198.06;5093566;28;20099;-63
2021/12/01 07:30:12;;;;;;;5.30;2.33;;;;;;;8.21;93.99;99185.72;5093773;28;20110;-63
2021/12/01 07:32:37;;;;;;;3.90;2.40;;;;;;;8.17;94.51;99181.34;5093252;28;20024;-63
2021/12/01 07:35:04;;;;;;;3.75;2.70;;;;;;;8.17;94.47;99184.84;5093740;28;20031;-63
2021/12/01 07:37:29;;;;;;;4.40;2.47;;;;;;;8.18;94.75;99175.19;5093504;28;20021;-63
2021/12/01 07:39:55;;;;;;;3.60;2.60;;;;;;;8.21;94.81;99165.53;5093721;28;20034;-64
2021/12/01 07:42:20;;;;;;;4.93;2.75;;;;;;;8.25;94.22;99174.28;5093572;28;20074;-64
2021/12/01 07:44:46;;;;;;;3.05;2.67;;;;;;;8.25;94.66;99171.66;5093660;28;20391;-64
2021/12/01 07:47:11;;;;;;;4.25;3.00;;;;;;;8.27;94.43;99168.13;5093486;28;20081;-65
2021/12/01 07:49:38;;;;;;;4.45;2.78;;;;;;;8.29;94.52;99165.50;5093274;28;20107;-64
2021/12/01 07:52:05;;;;;;;4.03;3.00;;;;;;;8.31;94.44;99161.09;5092991;28;20028;-64
2021/12/01 07:54:30;;;;;;;4.82;3.05;;;;;;;8.37;94.34;99166.34;5092748;28;20081;-64
2021/12/01 07:56:56;;;;;;;3.83;2.92;;;;;;;8.34;94.28;99158.44;5093005;28;20024;-63
2021/12/01 07:59:21;;;;;;;3.90;2.80;;;;;;;8.38;94.26;99151.41;5092602;28;20032;-64
2021/12/01 08:01:47;;;;;;;5.57;3.22;;;;;;;8.39;93.95;99150.53;5092722;28;20106;-63
2021/12/01 08:04:13;;;;;;;3.40;2.85;;;;;;;8.45;94.12;99151.38;5092872;28;20020;-64
2021/12/01 08:06:39;;;;;;;3.53;2.75;;;;;;;8.43;94.00;99155.75;5092659;28;20050;-63
2021/12/01 08:09:06;;;;;;;3.88;2.60;;;;;;;8.47;93.71;99153.97;5093194;28;20032;-64
2021/12/01 08:11:32;;;;;;;4.18;3.00;;;;;;;8.44;93.66;99138.22;5092540;28;20362;-63
2021/12/01 08:13:58;;;;;;;4.45;2.85;;;;;;;8.44;94.09;99141.72;5092657;28;20055;-64
2021/12/01 08:16:23;;;;;;;3.60;2.80;;;;;;;8.51;93.59;99140.78;5092368;28;20115;-63
2021/12/01 08:18:55;;;;;;;3.85;2.85;;;;;;;8.53;93.40;99143.41;5092441;28;20051;-64
2021/12/01 08:21:24;;;;;;;4.73;3.10;;;;;;;8.52;93.63;99137.28;5092623;28;20036;-63
2021/12/01 08:23:52;;;;;;;3.60;2.80;;;;;;;8.59;92.78;99126.69;5092604;28;20270;-64
2021/12/01 08:26:19;;;;;;;7.28;3.17;;;;;;;8.55;93.65;99123.19;5092677;28;20051;-64
2021/12/01 08:28:46;;;;;;;4.25;3.50;;;;;;;8.56;93.78;99121.44;5092336;28;20085;-64
2021/12/01 08:31:20;;;;;;;4.22;3.00;;;;;;;8.59;93.92;99130.19;5092731;28;20024;-64
2021/12/01 08:33:47;;;;;;;4.90;3.25;;;;;;;8.60;93.56;99121.38;5092435;28;20569;-64
2021/12/01 08:36:13;;;;;;;4.95;3.50;;;;;;;8.59;93.22;99111.75;5092556;28;20024;-63
2021/12/01 08:38:41;;;;;;;5.30;3.00;;;;;;;8.63;92.83;99123.13;5092181;28;20123;-64
2021/12/01 08:41:07;;;;;;;4.10;3.40;;;;;;;8.63;93.16;99125.78;5092739;28;20024;-64
2021/12/01 08:43:33;;;;;;;3.97;3.08;;;;;;;8.71;92.66;99102.88;5092207;28;20296;-64
2021/12/01 08:46:03;;;;;;;4.38;3.10;;;;;;;8.74;92.45;99109.00;5092481;28;20091;-64
2021/12/01 08:48:29;;;;;;;3.90;2.92;;;;;;;8.74;92.38;99116.91;5092315;28;20028;-64
2021/12/01 08:50:56;;;;;;;3.38;2.83;;;;;;;8.81;92.87;99119.44;5092333;28;20035;-63
2021/12/01 08:53:22;;;;;;;3.90;3.08;;;;;;;8.82;92.63;99108.88;5092250;28;20459;-63
2021/12/01 08:55:48;;;;;;;5.95;2.88;;;;;;;8.80;92.30;99102.78;5092166;28;20440;-64
2021/12/01 08:58:15;;;;;;;3.47;2.85;;;;;;;8.91;92.30;99102.69;5092171;28;20078;-64
2021/12/01 09:00:44;;;;;;;4.22;3.10;;;;;;;9.01;92.33;99106.94;5092070;28;20094;-63
2021/12/01 09:03:11;;;;;;;4.05;2.80;;;;;;;9.06;91.68;99105.13;5092554;28;20062;-63
2021/12/01 09:05:37;;;;;;;4.60;2.85;;;;;;;9.15;91.41;99104.16;5092028;28;20056;-63
2021/12/01 09:08:04;;;;;;;4.22;2.67;;;;;;;9.21;90.76;99126.06;5092329;28;20536;-63
2021/12/01 09:10:31;;;;;;;3.67;2.50;;;;;;;9.20;90.63;99110.25;5091954;28;20052;-64
2021/12/01 09:12:56;;;;;;;5.07;2.70;;;;;;;9.22;90.16;99114.63;5093705;28;20446;-65
2021/12/01 09:15:22;;;;;;;3.28;2.35;;;;;;;9.22;90.11;99103.22;5095927;28;20099;-64
2021/12/01 09:17:47;;;;;;;3.13;2.30;;;;;;;9.18;90.03;99133.13;5095697;28;20050;-64
2021/12/01 09:20:13;;;;;;;4.93;2.17;;;;;;;9.10;89.84;99096.31;5095627;28;20112;-63
2021/12/01 09:22:38;;;;;;;3.45;2.10;;;;;;;9.08;89.83;99100.75;5095568;28;20122;-63
2021/12/01 09:25:04;;;;;;;2.67;2.20;;;;;;;9.11;89.82;99107.72;5095771;28;20066;-64
2021/12/01 09:27:30;;;;;;;2.63;2.20;;;;;;;9.09;90.31;99113.00;5095373;28;20111;-63
2021/12/01 09:29:55;;;;;;;2.45;2.03;;;;;;;9.04;90.46;99099.03;5095782;28;20027;-64
2021/12/01 09:32:21;;;;;;;2.83;2.20;;;;;;;9.08;90.02;99106.00;5095407;28;20024;-64
2021/12/01 09:34:50;;;;;;;3.47;2.03;;;;;;;9.05;89.98;99111.31;5095817;28;20078;-64
2021/12/01 09:37:16;;;;;;;2.65;2.15;;;;;;;9.10;90.55;99119.16;5095503;28;20020;-64
2021/12/01 09:39:43;;;;;;;4.50;2.40;;;;;;;9.04;90.54;99128.00;5095239;28;20026;-64
2021/12/01 09:42:08;;;;;;;2.70;2.25;;;;;;;9.01;90.66;99121.00;5095205;28;20504;-64
2021/12/01 09:44:36;;;;;;;2.90;2.10;;;;;;;9.02;90.00;99135.03;5095376;28;20036;-65
2021/12/01 09:47:01;;;;;;;4.72;2.42;;;;;;;9.01;89.74;99130.66;5077061;28;20032;-64
2021/12/01 09:49:27;;;;;;;4.22;2.50;;;;;;;8.97;90.10;99137.72;5095144;28;20044;-65
2021/12/01 09:51:53;;;;;;;3.60;2.60;;;;;;;8.95;90.10;99134.25;5095235;28;20063;-64
2021/12/01 09:54:18;;;;;;;5.05;2.20;;;;;;;8.94;89.72;99129.84;5094972;28;20051;-64
2021/12/01 09:56:44;;;;;;;4.55;2.20;;;;;;;8.92;89.42;99147.44;5095050;28;20069;-65
2021/12/01 09:59:09;;;;;;;5.93;2.33;;;;;;;8.90;89.68;99138.66;5095073;28;20032;-64
2021/12/01 10:01:35;;;;;;;6.85;2.20;;;;;;;8.86;88.96;99142.22;5095037;28;20478;-65
2021/12/01 10:04:06;;;;;;;6.43;2.30;;;;;;;8.89;89.66;99134.28;5094827;28;20024;-64
2021/12/01 10:06:32;;;;;;;8.48;2.40;;;;;;;8.91;88.68;99127.25;5094963;28;20024;-64
2021/12/01 10:09:07;;;;;;;7.03;2.28;;;;;;;8.90;88.95;99138.66;5095222;28;20028;-64
2021/12/01 10:11:38;;;;;;;7.13;2.30;;;;;;;8.89;88.61;99125.50;5094623;28;20028;-64
2021/12/01 10:14:25;;;;;;;8.00;2.30;;;;;;;8.86;88.39;99130.81;5094767;28;20028;-64
2021/12/01 10:16:54;;;;;;;6.20;2.20;;;;;;;8.86;88.17;99130.81;5093998;28;20036;-64
2021/12/01 10:19:19;;;;;;;6.63;2.40;;;;;;;8.85;88.49;99136.97;5076112;28;20055;-64
2021/12/01 10:21:47;;;;;;;11.13;2.72;;;;;;;8.88;87.97;99122.00;5094434;28;20028;-64
2021/12/01 10:24:20;;;;;;;9.52;2.92;;;;;;;8.88;87.86;99134.31;5094272;28;20026;-63
2021/12/01 10:26:59;;;;;;;11.27;2.90;;;;;;;8.92;87.36;99118.47;5094518;28;20028;-64
2021/12/01 10:29:29;;;;;;;13.93;2.40;;;;;;;8.95;86.86;99126.34;5094733;28;20020;-64
2021/12/01 10:31:58;;;;;;;8.55;2.58;;;;;;;8.97;86.94;99129.81;5094217;28;20051;-63
2021/12/01 10:34:30;;;;;;;11.02;2.40;;;;;;;9.04;86.30;99141.19;5094616;28;20028;-64
2021/12/01 10:37:10;;;;;;;9.43;2.20;;;;;;;9.19;86.85;99127.81;5094000;28;20055;-64
2021/12/01 10:39:38;;;;;;;8.15;2.17;;;;;;;9.26;86.40;99128.63;5094173;28;20308;-64
2021/12/01 10:42:06;;;;;;;8.23;2.05;;;;;;;9.35;86.02;99131.16;5094073;28;20481;-64
2021/12/01 10:44:33;;;;;;;8.63;2.10;;;;;;;9.51;85.96;99122.19;5094114;28;20428;-63
2021/12/01 10:47:07;;;;;;;9.43;2.10;;;;;;;9.72;84.71;99121.03;5094070;28;20054;-63
2021/12/01 10:49:43;;;;;;;7.45;2.10;;;;;;;9.92;84.13;99119.84;5093942;28;20028;-63
2021/12/01 10:52:27;;;;;;;10.60;2.30;;;;;;;10.25;85.74;99121.16;5093850;28;20086;-63
2021/12/01 10:55:17;;;;;;;9.35;1.77;;;;;;;10.66;84.56;99109.94;5093746;28;20466;-63
2021/12/01 10:57:49;;;;;;;10.48;2.15;;;;;;;11.06;80.73;99108.31;5093614;28;20386;-64
2021/12/01 11:00:19;;;;;;;7.50;2.35;;;;;;;11.03;75.34;99109.22;5093495;28;20436;-64
2021/12/01 11:02:45;;;;;;;6.20;2.00;;;;;;;10.87;75.84;99110.41;5093561;28;20028;-64
2021/12/01 11:05:23;;;;;;;6.90;1.80;;;;;;;10.66;75.91;99120.50;5093281;28;20056;-63
2021/12/01 11:07:49;;;;;;;8.30;1.92;;;;;;;10.51;77.36;99111.03;5093484;28;20039;-64
2021/12/01 11:10:20;;;;;;;5.85;1.50;;;;;;;10.35;77.43;99122.75;5093374;28;20020;-64
2021/12/01 11:12:54;;;;;;;5.40;1.38;;;;;;;10.18;78.48;99116.81;5093805;28;20040;-64
2021/12/01 11:15:21;;;;;;;7.50;1.90;;;;;;;10.02;80.06;99135.56;5093581;28;20028;-65
2021/12/01 11:17:57;;;;;;;7.20;2.00;;;;;;;9.84;80.89;99127.88;5093439;28;20028;-64
2021/12/01 11:20:43;;;;;;;4.93;1.48;;;;;;;9.67;82.00;99136.00;5072880;28;20032;-65
2021/12/01 11:23:33;;;;;;;5.95;1.63;;;;;;;9.53;81.58;99130.91;5073188;28;20391;-65
2021/12/01 11:26:06;;;;;;;7.65;1.70;;;;;;;9.47;80.90;99136.28;5054913;28;20397;-65
2021/12/01 11:28:35;;;;;;;7.43;1.63;;;;;;;9.37;81.57;99142.53;5073038;28;20390;-65
2021/12/01 11:31:03;;;;;;;6.07;1.98;;;;;;;9.32;81.30;99133.81;5073155;28;20034;-64
2021/12/01 11:33:30;;;;;;;3.97;1.30;;;;;;;9.31;81.01;99147.03;5072863;28;20482;-64
2021/12/01 11:35:59;;;;;;;7.78;1.60;;;;;;;9.22;81.06;99133.06;5072316;28;20087;-63
2021/12/01 11:38:26;;;;;;;5.05;1.65;;;;;;;9.24;81.43;99138.31;5072658;28;20021;-63
2021/12/01 11:40:53;;;;;;;10.00;2.20;;;;;;;9.24;80.45;99143.56;5072792;28;20031;-64
2021/12/01 11:43:23;;;;;;;6.28;1.70;;;;;;;9.21;80.84;99133.09;5072687;28;20056;-64
2021/12/01 11:45:49;;;;;;;8.23;1.85;;;;;;;9.19;80.74;99130.44;5072827;28;20583;-64
2021/12/01 11:48:37;;;;;;;5.80;1.90;;;;;;;9.18;81.24;99117.31;5072416;28;20112;-63
2021/12/01 11:51:16;;;;;;;7.65;1.63;;;;;;;9.16;81.16;99122.56;5072661;28;20029;-63